createdAt,value
2016-11-08T00:00:28.957Z,91
2016-11-08T00:01:32.084Z,91
2016-11-08T00:02:35.213Z,91
2016-11-08T00:03:38.339Z,91
2016-11-08T00:04:41.464Z,91
2016-11-08T00:05:44.593Z,91
2016-11-08T00:06:47.723Z,91
2016-11-08T00:07:50.843Z,91
2016-11-08T00:08:53.970Z,91
2016-11-08T00:09:57.101Z,90
2016-11-08T00:11:00.236Z,90
2016-11-08T00:12:03.353Z,90
2016-11-08T00:13:06.483Z,90
2016-11-08T00:14:09.608Z,90
2016-11-08T00:15:12.731Z,90
2016-11-08T00:16:15.850Z,90
2016-11-08T00:17:18.981Z,90
2016-11-08T00:18:22.109Z,90
2016-11-08T00:19:25.230Z,90
2016-11-08T00:20:28.362Z,90
2016-11-08T00:21:31.481Z,89
2016-11-08T00:22:34.608Z,90
2016-11-08T00:23:37.719Z,89
2016-11-08T00:24:40.847Z,90
2016-11-08T00:25:43.976Z,90
2016-11-08T00:26:47.095Z,89
2016-11-08T00:27:50.221Z,90
2016-11-08T00:28:53.342Z,90
2016-11-08T00:29:56.474Z,89
2016-11-08T00:30:59.594Z,89
2016-11-08T00:32:02.716Z,89
2016-11-08T00:33:05.843Z,89
2016-11-08T00:34:08.970Z,89
2016-11-08T00:35:12.088Z,89
2016-11-08T00:36:15.216Z,89
2016-11-08T00:37:18.346Z,90
2016-11-08T00:38:21.484Z,90
2016-11-08T00:39:24.601Z,90
2016-11-08T00:40:27.724Z,90
2016-11-08T00:41:30.853Z,90
2016-11-08T00:42:33.969Z,90
2016-11-08T00:43:37.093Z,90
2016-11-08T00:44:40.220Z,90
2016-11-08T00:45:43.345Z,90
2016-11-08T00:46:46.468Z,90
2016-11-08T00:47:49.595Z,90
2016-11-08T00:48:52.721Z,90
2016-11-08T00:49:55.847Z,90
2016-11-08T00:50:58.968Z,90
2016-11-08T00:52:02.092Z,91
2016-11-08T00:53:05.222Z,91
2016-11-08T00:54:08.352Z,91
2016-11-08T00:55:11.478Z,91
2016-11-08T00:56:14.604Z,91
2016-11-08T00:57:17.827Z,91
2016-11-08T00:58:20.950Z,91
2016-11-08T00:59:24.070Z,91
2016-11-08T01:00:27.190Z,91
2016-11-08T01:01:30.319Z,91
2016-11-08T01:02:33.448Z,91
2016-11-08T01:03:36.572Z,91
2016-11-08T01:04:39.697Z,91
2016-11-08T01:05:42.826Z,91
2016-11-08T01:06:45.947Z,91
2016-11-08T01:07:49.069Z,91
2016-11-08T01:08:52.195Z,91
2016-11-08T01:09:55.324Z,92
2016-11-08T01:10:58.451Z,92
2016-11-08T01:12:01.573Z,92
2016-11-08T01:13:04.693Z,91
2016-11-08T01:14:07.818Z,91
2016-11-08T01:15:10.953Z,92
2016-11-08T01:16:14.075Z,91
2016-11-08T01:17:17.192Z,91
2016-11-08T01:18:20.316Z,91
2016-11-08T01:19:23.456Z,91
2016-11-08T01:20:26.579Z,91
2016-11-08T01:21:29.699Z,91
2016-11-08T01:22:32.826Z,91
2016-11-08T01:23:35.959Z,91
2016-11-08T01:24:39.084Z,91
2016-11-08T01:25:42.210Z,92
2016-11-08T01:26:45.342Z,91
2016-11-08T01:27:48.459Z,91
2016-11-08T01:28:51.584Z,91
2016-11-08T01:29:54.708Z,91
2016-11-08T01:30:57.839Z,91
2016-11-08T01:32:00.957Z,91
2016-11-08T01:33:04.085Z,91
2016-11-08T01:34:07.214Z,91
2016-11-08T01:35:10.351Z,91
2016-11-08T01:36:13.469Z,91
2016-11-08T01:37:16.594Z,91
2016-11-08T01:38:19.713Z,91
2016-11-08T01:39:22.847Z,91
2016-11-08T01:40:25.974Z,92
2016-11-08T01:41:29.102Z,92
2016-11-08T01:42:32.222Z,92
2016-11-08T01:43:35.340Z,92
2016-11-08T01:44:38.470Z,91
2016-11-08T01:45:41.595Z,91
2016-11-08T01:46:44.727Z,92
2016-11-08T01:47:47.839Z,92
2016-11-08T01:48:50.964Z,92
2016-11-08T01:49:54.181Z,92
2016-11-08T01:50:57.311Z,92
2016-11-08T01:52:00.437Z,92
2016-11-08T01:53:03.564Z,92
2016-11-08T01:54:06.690Z,92
2016-11-08T01:55:09.818Z,92
2016-11-08T01:56:12.937Z,92
2016-11-08T01:57:16.056Z,92
2016-11-08T01:58:19.185Z,92
2016-11-08T01:59:22.316Z,92
2016-11-08T02:00:25.438Z,92
2016-11-08T02:01:28.559Z,92
2016-11-08T02:02:31.686Z,92
2016-11-08T02:03:34.815Z,92
2016-11-08T02:04:37.944Z,92
2016-11-08T02:05:41.063Z,92
2016-11-08T02:06:44.189Z,92
2016-11-08T02:07:47.327Z,92
2016-11-08T02:08:50.449Z,92
2016-11-08T02:09:53.574Z,92
2016-11-08T02:10:56.699Z,92
2016-11-08T02:11:59.824Z,92
2016-11-08T02:13:02.945Z,92
2016-11-08T02:14:06.068Z,92
2016-11-08T02:15:09.199Z,92
2016-11-08T02:16:12.323Z,92
2016-11-08T02:17:15.454Z,92
2016-11-08T02:18:18.587Z,92
2016-11-08T02:19:21.715Z,92
2016-11-08T02:20:24.837Z,92
2016-11-08T02:21:28.054Z,92
2016-11-08T02:22:31.181Z,92
2016-11-08T02:23:34.316Z,92
2016-11-08T02:24:37.439Z,92
2016-11-08T02:25:40.563Z,92
2016-11-08T02:26:43.684Z,92
2016-11-08T02:27:46.812Z,92
2016-11-08T02:28:49.930Z,92
2016-11-08T02:29:53.052Z,92
2016-11-08T02:30:56.179Z,92
2016-11-08T02:31:59.313Z,92
2016-11-08T02:33:02.426Z,92
2016-11-08T02:34:05.553Z,92
2016-11-08T02:35:08.684Z,92
2016-11-08T02:36:11.815Z,92
2016-11-08T02:37:14.934Z,92
2016-11-08T02:38:18.059Z,92
2016-11-08T02:39:21.190Z,92
2016-11-08T02:40:24.309Z,92
2016-11-08T02:41:27.432Z,92
2016-11-08T02:42:30.561Z,92
2016-11-08T02:43:33.684Z,92
2016-11-08T02:44:36.810Z,93
2016-11-08T02:45:39.932Z,92
2016-11-08T02:46:43.049Z,92
2016-11-08T02:47:46.173Z,92
2016-11-08T02:48:49.297Z,92
2016-11-08T02:49:52.416Z,93
2016-11-08T02:50:55.549Z,92
2016-11-08T02:51:58.670Z,93
2016-11-08T02:53:01.794Z,93
2016-11-08T02:54:04.918Z,93
2016-11-08T02:55:08.045Z,93
2016-11-08T02:56:11.160Z,93
2016-11-08T02:57:14.285Z,93
2016-11-08T02:58:17.413Z,93
2016-11-08T02:59:20.545Z,93
2016-11-08T03:00:23.663Z,93
2016-11-08T03:01:26.790Z,93
2016-11-08T03:02:29.919Z,93
2016-11-08T03:03:33.045Z,93
2016-11-08T03:04:36.160Z,93
2016-11-08T03:05:39.287Z,93
2016-11-08T03:06:42.415Z,93
2016-11-08T03:07:45.540Z,93
2016-11-08T03:08:48.668Z,93
2016-11-08T03:09:51.792Z,93
2016-11-08T03:10:54.918Z,93
2016-11-08T03:11:58.031Z,93
2016-11-08T03:13:01.154Z,93
2016-11-08T03:14:04.278Z,93
2016-11-08T03:15:07.404Z,93
2016-11-08T03:16:10.531Z,93
2016-11-08T03:17:13.658Z,93
2016-11-08T03:18:16.782Z,93
2016-11-08T03:19:19.907Z,93
2016-11-08T03:20:23.023Z,93
2016-11-08T03:21:26.147Z,93
2016-11-08T03:22:29.275Z,94
2016-11-08T03:23:32.400Z,93
2016-11-08T03:24:35.524Z,93
2016-11-08T03:25:38.655Z,93
2016-11-08T03:26:41.786Z,94
2016-11-08T03:27:44.911Z,94
2016-11-08T03:28:48.031Z,94
2016-11-08T03:29:51.154Z,94
2016-11-08T03:30:54.275Z,94
2016-11-08T03:31:57.406Z,94
2016-11-08T03:33:00.525Z,94
2016-11-08T03:34:03.654Z,94
2016-11-08T03:35:06.784Z,94
2016-11-08T03:36:09.911Z,94
2016-11-08T03:37:13.032Z,94
2016-11-08T03:38:16.156Z,94
2016-11-08T03:39:19.282Z,94
2016-11-08T03:40:22.407Z,94
2016-11-08T03:41:25.531Z,94
2016-11-08T03:42:28.660Z,94
2016-11-08T03:43:31.786Z,94
2016-11-08T03:44:34.907Z,94
2016-11-08T03:45:38.033Z,94
2016-11-08T03:46:41.178Z,94
2016-11-08T03:47:44.501Z,94
2016-11-08T03:48:47.620Z,94
2016-11-08T03:49:50.745Z,94
2016-11-08T03:50:53.874Z,94
2016-11-08T03:51:57.001Z,94
2016-11-08T03:53:00.126Z,94
2016-11-08T03:54:03.249Z,94
2016-11-08T03:55:06.374Z,94
2016-11-08T03:56:09.507Z,94
2016-11-08T03:57:12.629Z,94
2016-11-08T03:58:15.754Z,94
2016-11-08T03:59:18.886Z,94
2016-11-08T04:00:22.021Z,94
2016-11-08T04:01:25.135Z,94
2016-11-08T04:02:28.261Z,94
2016-11-08T04:03:31.392Z,94
2016-11-08T04:04:34.510Z,94
2016-11-08T04:05:37.632Z,94
2016-11-08T04:06:40.979Z,94
2016-11-08T04:07:44.112Z,94
2016-11-08T04:08:47.223Z,94
2016-11-08T04:09:50.356Z,94
2016-11-08T04:10:53.486Z,94
2016-11-08T04:11:56.614Z,94
2016-11-08T04:12:59.730Z,94
2016-11-08T04:14:02.859Z,94
2016-11-08T04:15:05.990Z,94
2016-11-08T04:16:09.106Z,94
2016-11-08T04:17:12.229Z,94
2016-11-08T04:18:15.353Z,94
2016-11-08T04:19:18.485Z,94
2016-11-08T04:20:21.603Z,94
2016-11-08T04:21:24.732Z,94
2016-11-08T04:22:27.861Z,94
2016-11-08T04:23:30.991Z,94
2016-11-08T04:24:34.111Z,94
2016-11-08T04:25:37.237Z,94
2016-11-08T04:26:40.364Z,94
2016-11-08T04:27:43.494Z,94
2016-11-08T04:28:46.615Z,94
2016-11-08T04:29:49.742Z,94
2016-11-08T04:30:52.864Z,94
2016-11-08T04:31:55.979Z,94
2016-11-08T04:32:59.108Z,94
2016-11-08T04:34:02.234Z,94
2016-11-08T04:35:05.360Z,94
2016-11-08T04:36:08.477Z,94
2016-11-08T04:37:11.604Z,94
2016-11-08T04:38:14.731Z,95
2016-11-08T04:39:17.859Z,94
2016-11-08T04:40:20.985Z,94
2016-11-08T04:41:24.107Z,94
2016-11-08T04:42:27.233Z,94
2016-11-08T04:43:30.361Z,94
2016-11-08T04:44:33.477Z,94
2016-11-08T04:45:36.597Z,95
2016-11-08T04:46:39.727Z,95
2016-11-08T04:47:42.856Z,94
2016-11-08T04:48:45.981Z,95
2016-11-08T04:49:49.100Z,95
2016-11-08T04:50:52.230Z,95
2016-11-08T04:51:55.356Z,95
2016-11-08T04:52:58.475Z,95
2016-11-08T04:54:01.597Z,95
2016-11-08T04:55:04.726Z,95
2016-11-08T04:56:07.851Z,95
2016-11-08T04:57:10.985Z,95
2016-11-08T04:58:14.111Z,95
2016-11-08T04:59:17.239Z,95
2016-11-08T05:00:20.359Z,95
2016-11-08T05:01:23.482Z,95
2016-11-08T05:02:26.600Z,95
2016-11-08T05:03:29.727Z,95
2016-11-08T05:04:32.848Z,94
2016-11-08T05:05:35.974Z,94
2016-11-08T05:06:39.106Z,94
2016-11-08T05:07:42.236Z,95
2016-11-08T05:08:45.359Z,95
2016-11-08T05:09:48.486Z,95
2016-11-08T05:10:51.611Z,95
2016-11-08T05:11:54.738Z,95
2016-11-08T05:12:57.857Z,95
2016-11-08T05:14:00.982Z,95
2016-11-08T05:15:04.113Z,95
2016-11-08T05:16:07.234Z,95
2016-11-08T05:17:10.359Z,95
2016-11-08T05:18:13.481Z,95
2016-11-08T05:19:16.605Z,95
2016-11-08T05:20:19.731Z,95
2016-11-08T05:21:22.846Z,95
2016-11-08T05:22:25.970Z,95
2016-11-08T05:23:29.099Z,95
2016-11-08T05:24:32.231Z,95
2016-11-08T05:25:35.348Z,95
2016-11-08T05:26:38.473Z,95
2016-11-08T05:27:41.601Z,95
2016-11-08T05:28:44.723Z,95
2016-11-08T05:29:47.847Z,95
2016-11-08T05:30:50.975Z,95
2016-11-08T05:31:54.103Z,95
2016-11-08T05:32:57.223Z,95
2016-11-08T05:34:00.356Z,95
2016-11-08T05:35:03.481Z,95
2016-11-08T05:36:06.614Z,95
2016-11-08T05:37:09.733Z,95
2016-11-08T05:38:12.865Z,95
2016-11-08T05:39:16.162Z,95
2016-11-08T05:40:19.119Z,95
2016-11-08T05:41:22.246Z,95
2016-11-08T05:42:25.381Z,95
2016-11-08T05:43:28.507Z,95
2016-11-08T05:44:31.622Z,95
2016-11-08T05:45:34.753Z,95
2016-11-08T05:46:37.884Z,95
2016-11-08T05:47:41.017Z,95
2016-11-08T05:48:44.132Z,95
2016-11-08T05:49:47.261Z,95
2016-11-08T05:50:50.388Z,95
2016-11-08T05:51:53.514Z,95
2016-11-08T05:52:56.634Z,95
2016-11-08T05:53:59.973Z,95
2016-11-08T05:55:03.102Z,95
2016-11-08T05:56:06.225Z,95
2016-11-08T05:57:09.356Z,95
2016-11-08T05:58:12.480Z,95
2016-11-08T05:59:15.606Z,95
2016-11-08T06:00:18.750Z,95
2016-11-08T06:01:21.878Z,95
2016-11-08T06:02:25.010Z,95
2016-11-08T06:03:28.127Z,95
2016-11-08T06:04:31.244Z,95
2016-11-08T06:05:34.371Z,95
2016-11-08T06:06:37.502Z,95
2016-11-08T06:07:40.626Z,95
2016-11-08T06:08:43.746Z,95
2016-11-08T06:09:46.903Z,95
2016-11-08T06:10:50.028Z,95
2016-11-08T06:11:53.158Z,95
2016-11-08T06:12:56.282Z,95
2016-11-08T06:13:59.423Z,95
2016-11-08T06:15:02.761Z,95
2016-11-08T06:16:05.893Z,95
2016-11-08T06:17:09.017Z,95
2016-11-08T06:18:12.143Z,95
2016-11-08T06:19:15.264Z,95
2016-11-08T06:20:18.385Z,95
2016-11-08T06:21:21.507Z,95
2016-11-08T06:22:24.626Z,95
2016-11-08T06:23:27.754Z,95
2016-11-08T06:24:30.882Z,95
2016-11-08T06:25:34.014Z,95
2016-11-08T06:26:37.140Z,95
2016-11-08T06:27:40.266Z,95
2016-11-08T06:28:43.386Z,95
2016-11-08T06:29:46.513Z,95
2016-11-08T06:30:49.640Z,95
2016-11-08T06:31:52.767Z,95
2016-11-08T06:32:56.931Z,95
2016-11-08T06:33:59.834Z,95
2016-11-08T06:35:02.961Z,95
2016-11-08T06:36:06.082Z,95
2016-11-08T06:37:09.204Z,95
2016-11-08T06:38:12.333Z,95
2016-11-08T06:39:15.460Z,95
2016-11-08T06:40:18.589Z,95
2016-11-08T06:41:21.710Z,95
2016-11-08T06:43:33.409Z,95
2016-11-08T06:48:15.725Z,96
2016-11-08T13:08:12.387Z,96
2016-11-08T13:09:15.513Z,97
2016-11-08T13:10:18.642Z,97
2016-11-08T13:11:21.769Z,97
2016-11-08T13:12:24.895Z,97
2016-11-08T13:13:28.028Z,97
2016-11-08T13:14:31.145Z,97
2016-11-08T13:15:34.266Z,97
2016-11-08T13:16:37.392Z,97
2016-11-08T13:17:40.522Z,97
2016-11-08T13:18:43.650Z,97
2016-11-08T13:19:46.778Z,97
2016-11-08T13:20:49.911Z,97
2016-11-08T13:21:53.032Z,97
2016-11-08T13:22:56.157Z,97
2016-11-08T13:23:59.277Z,97
2016-11-08T13:25:02.403Z,97
2016-11-08T13:26:05.525Z,97
2016-11-08T13:27:08.656Z,97
2016-11-08T13:28:11.775Z,97
2016-11-08T13:29:14.902Z,97
2016-11-08T13:30:18.044Z,97
2016-11-08T13:31:21.160Z,97
2016-11-08T13:32:24.280Z,97
2016-11-08T13:33:27.394Z,97
2016-11-08T13:34:30.524Z,97
2016-11-08T13:35:33.644Z,97
2016-11-08T13:36:36.767Z,97
2016-11-08T13:37:39.904Z,97
2016-11-08T13:38:43.049Z,97
2016-11-08T13:39:46.169Z,97
2016-11-08T13:40:49.282Z,97
2016-11-08T13:41:52.411Z,97
2016-11-08T13:42:55.533Z,97
2016-11-08T13:43:58.655Z,97
2016-11-08T13:45:01.781Z,97
2016-11-08T13:46:04.902Z,97
2016-11-08T13:47:08.045Z,97
2016-11-08T13:48:11.138Z,97
2016-11-08T13:49:14.265Z,97
2016-11-08T13:50:17.400Z,96
2016-11-08T13:51:20.516Z,96
2016-11-08T13:52:23.649Z,96
2016-11-08T13:53:26.762Z,96
2016-11-08T13:54:29.889Z,96
2016-11-08T13:55:33.016Z,97
2016-11-08T13:56:36.146Z,97
2016-11-08T13:57:39.257Z,97
2016-11-08T13:58:42.385Z,97
2016-11-08T13:59:45.508Z,97
2016-11-08T14:00:48.628Z,97
2016-11-08T14:01:51.746Z,97
2016-11-08T14:02:54.868Z,97
2016-11-08T14:03:58.006Z,97
2016-11-08T14:05:04.159Z,97
2016-11-08T14:06:07.494Z,97
2016-11-08T14:07:10.606Z,97
2016-11-08T14:08:13.732Z,97
2016-11-08T14:09:16.855Z,97
2016-11-08T14:10:19.980Z,97
2016-11-08T14:11:23.100Z,97
2016-11-08T14:12:26.225Z,97
2016-11-08T14:13:29.344Z,97
2016-11-08T14:14:32.821Z,97
2016-11-08T14:15:35.949Z,97
2016-11-08T14:16:39.092Z,97
2016-11-08T14:17:42.260Z,97
2016-11-08T14:18:45.379Z,97
2016-11-08T14:19:48.505Z,97
2016-11-08T14:20:51.630Z,97
2016-11-08T14:21:54.753Z,97
2016-11-08T14:22:57.878Z,97
2016-11-08T14:24:01.012Z,97
2016-11-08T14:25:04.232Z,97
2016-11-08T14:26:07.351Z,97
2016-11-08T14:27:10.474Z,97
2016-11-08T14:28:13.597Z,97
2016-11-08T14:29:16.727Z,97
2016-11-08T14:30:19.854Z,97
2016-11-08T14:31:22.971Z,97
2016-11-08T14:32:26.091Z,97
2016-11-08T14:33:29.234Z,97
2016-11-08T14:34:32.343Z,97
2016-11-08T14:35:35.496Z,97
2016-11-08T14:36:38.595Z,97
2016-11-08T14:37:41.723Z,97
2016-11-08T14:38:44.707Z,97
2016-11-08T14:39:47.827Z,97
2016-11-08T14:40:50.946Z,97
2016-11-08T14:41:54.067Z,97
2016-11-08T14:42:57.186Z,97
2016-11-08T14:44:00.310Z,97
2016-11-08T14:45:03.439Z,98
2016-11-08T14:46:06.571Z,98
2016-11-08T14:47:09.689Z,98
2016-11-08T14:48:12.808Z,98
2016-11-08T14:49:15.934Z,98
2016-11-08T14:50:19.063Z,98
2016-11-08T14:51:22.178Z,98
2016-11-08T14:52:25.351Z,98
2016-11-08T14:53:28.558Z,98
2016-11-08T14:54:31.682Z,98
2016-11-08T14:55:34.807Z,98
2016-11-08T14:56:38.382Z,98
2016-11-08T14:57:41.494Z,98
2016-11-08T14:58:44.618Z,98
2016-11-08T14:59:47.740Z,98
2016-11-08T15:00:50.877Z,98
2016-11-08T15:01:54.309Z,98
2016-11-08T15:02:57.147Z,98
2016-11-08T15:04:00.258Z,98
2016-11-08T15:05:03.384Z,98
2016-11-08T15:06:06.514Z,98
2016-11-08T15:07:09.626Z,98
2016-11-08T15:08:12.746Z,98
2016-11-08T15:09:15.866Z,98
2016-11-08T15:10:19.004Z,98
2016-11-08T15:11:22.111Z,98
2016-11-08T15:12:25.244Z,98
2016-11-08T15:13:28.368Z,98
2016-11-08T15:14:31.504Z,97
2016-11-08T15:15:34.631Z,98
2016-11-08T15:16:37.758Z,98
2016-11-08T15:17:40.884Z,98
2016-11-08T15:18:44.012Z,98
2016-11-08T15:19:47.163Z,98
2016-11-08T15:20:50.262Z,98
2016-11-08T15:21:53.385Z,98
2016-11-08T15:22:56.513Z,98
2016-11-08T15:23:59.640Z,98
2016-11-08T15:25:02.773Z,98
2016-11-08T15:26:05.879Z,98
2016-11-08T15:27:09.004Z,98
2016-11-08T15:28:12.131Z,98
2016-11-08T15:29:15.252Z,98
2016-11-08T15:30:18.384Z,98
2016-11-08T15:31:21.511Z,98
2016-11-08T15:32:24.642Z,98
2016-11-08T15:33:27.759Z,98
2016-11-08T15:34:30.882Z,98
2016-11-08T15:35:34.004Z,98
2016-11-08T15:36:37.132Z,98
2016-11-08T15:37:40.247Z,98
2016-11-08T15:38:43.376Z,98
2016-11-08T15:39:46.501Z,98
2016-11-08T15:40:49.620Z,98
2016-11-08T15:41:52.747Z,98
2016-11-08T15:42:55.877Z,98
2016-11-08T15:43:59.070Z,98
2016-11-08T15:45:02.178Z,98
2016-11-08T15:46:05.300Z,98
2016-11-08T15:47:08.426Z,98
2016-11-08T15:48:11.552Z,98
2016-11-08T15:49:14.679Z,97
2016-11-08T15:50:17.803Z,97
2016-11-08T15:51:20.931Z,97
2016-11-08T15:52:24.052Z,98
2016-11-08T15:53:27.182Z,98
2016-11-08T15:54:30.309Z,98
2016-11-08T15:55:33.432Z,98
2016-11-08T15:56:36.558Z,98
2016-11-08T15:57:39.679Z,98
2016-11-08T15:58:42.810Z,98
2016-11-08T15:59:45.934Z,98
2016-11-08T16:00:49.054Z,97
2016-11-08T16:01:52.178Z,97
2016-11-08T16:02:55.301Z,97
2016-11-08T16:03:58.433Z,97
2016-11-08T16:05:01.558Z,97
2016-11-08T16:06:04.679Z,97
2016-11-08T16:07:07.807Z,97
2016-11-08T16:08:10.930Z,97
2016-11-08T16:09:14.052Z,97
2016-11-08T16:10:17.173Z,97
2016-11-08T16:11:20.293Z,97
2016-11-08T16:12:23.416Z,97
2016-11-08T16:13:26.544Z,97
2016-11-08T16:14:29.677Z,97
2016-11-08T16:15:32.798Z,98
2016-11-08T16:16:35.923Z,97
2016-11-08T16:17:39.046Z,97
2016-11-08T16:18:42.167Z,98
2016-11-08T16:19:45.299Z,98
2016-11-08T16:20:48.418Z,98
2016-11-08T16:21:51.549Z,97
2016-11-08T16:22:54.665Z,97
2016-11-08T16:23:57.788Z,98
2016-11-08T16:25:00.918Z,97
2016-11-08T16:26:04.037Z,97
2016-11-08T16:27:07.152Z,97
2016-11-08T16:28:10.277Z,97
2016-11-08T16:29:13.407Z,97
2016-11-08T16:30:16.529Z,97
2016-11-08T16:31:19.655Z,97
2016-11-08T16:32:22.775Z,97
2016-11-08T16:33:25.904Z,97
2016-11-08T16:34:29.034Z,98
2016-11-08T16:35:32.146Z,98
2016-11-08T16:36:35.270Z,98
2016-11-08T16:37:38.401Z,98
2016-11-08T16:38:41.529Z,98
2016-11-08T16:39:44.652Z,98
2016-11-08T16:40:47.778Z,98
2016-11-08T16:41:50.904Z,98
2016-11-08T16:42:54.021Z,98
2016-11-08T16:43:57.141Z,98
2016-11-08T16:45:00.264Z,98
2016-11-08T16:46:03.390Z,98
2016-11-08T16:47:06.505Z,98
2016-11-08T16:48:09.637Z,98
2016-11-08T16:49:12.863Z,98
2016-11-08T16:51:24.563Z,98
2016-11-08T16:52:27.783Z,98
2016-11-08T16:53:30.908Z,98
2016-11-08T16:54:34.036Z,98
2016-11-08T16:55:37.185Z,98
2016-11-08T16:57:48.991Z,98
2016-11-08T16:58:52.129Z,98
2016-11-08T16:59:55.245Z,98
2016-11-08T17:00:58.380Z,98
2016-11-08T17:02:01.499Z,98
2016-11-08T17:03:13.051Z,98
2016-11-08T17:04:16.183Z,98
2016-11-08T17:06:28.009Z,98
2016-11-08T17:07:31.142Z,98
2016-11-08T17:09:44.525Z,98
2016-11-08T17:10:47.654Z,98
2016-11-08T17:11:50.781Z,98
2016-11-08T17:12:53.903Z,98
2016-11-08T17:13:57.026Z,98
2016-11-08T17:15:00.162Z,98
2016-11-08T17:16:11.709Z,98
2016-11-08T17:17:14.837Z,98
2016-11-08T17:18:17.966Z,98
2016-11-08T17:20:31.389Z,98
2016-11-08T17:21:34.513Z,98
2016-11-08T17:22:37.642Z,98
2016-11-08T17:23:40.764Z,98
